createdAt,value
2023-05-26T00:00:29.178Z,25.00
2023-05-26T00:01:29.186Z,25.00
2023-05-26T00:02:29.303Z,25.00
2023-05-26T00:03:29.493Z,0.00
2023-05-26T00:04:29.338Z,0.00
2023-05-26T00:05:29.307Z,0.00
2023-05-26T00:06:29.329Z,0.00
2023-05-26T00:07:29.361Z,0.00
2023-05-26T00:08:29.391Z,2.75
2023-05-26T00:09:29.481Z,17.91
2023-05-26T00:10:29.460Z,25.86
2023-05-26T00:11:29.494Z,25.72
2023-05-26T00:12:29.521Z,25.00
2023-05-26T00:13:29.605Z,25.00
2023-05-26T00:14:29.622Z,25.56
2023-05-26T00:15:29.670Z,25.00
2023-05-26T00:16:29.773Z,25.27
2023-05-26T00:17:29.764Z,24.20
2023-05-26T00:18:29.817Z,25.28
2023-05-26T00:19:29.875Z,28.29
2023-05-26T00:20:30.033Z,25.00
2023-05-26T00:21:29.976Z,25.00
2023-05-26T00:22:30.016Z,25.00
2023-05-26T00:23:30.062Z,27.10
2023-05-26T00:24:30.117Z,27.15
2023-05-26T00:25:30.169Z,29.43
2023-05-26T00:26:30.238Z,29.23
2023-05-26T00:27:30.282Z,26.42
2023-05-26T00:28:30.337Z,28.04
2023-05-26T00:29:30.408Z,25.00
2023-05-26T00:30:30.443Z,27.51
2023-05-26T00:31:30.705Z,25.00
2023-05-26T00:32:30.578Z,25.00
2023-05-26T00:33:30.600Z,27.20
2023-05-26T00:34:30.660Z,27.00
2023-05-26T00:35:30.711Z,26.04
2023-05-26T00:36:30.772Z,26.19
2023-05-26T00:37:30.816Z,28.97
2023-05-26T00:38:30.869Z,25.84
2023-05-26T00:39:30.940Z,32.18
2023-05-26T00:40:30.990Z,27.67
2023-05-26T00:41:31.041Z,27.20
2023-05-26T00:42:31.093Z,28.94
2023-05-26T00:43:31.159Z,25.35
2023-05-26T00:44:31.215Z,26.64
2023-05-26T00:45:31.317Z,27.28
2023-05-26T00:46:31.378Z,27.54
2023-05-26T00:47:31.397Z,28.93
2023-05-26T00:48:31.435Z,28.55
2023-05-26T00:49:31.483Z,29.00
2023-05-26T00:50:31.546Z,26.09
2023-05-26T00:51:31.603Z,30.04
2023-05-26T00:52:31.666Z,29.85
2023-05-26T00:53:31.724Z,28.87
2023-05-26T00:54:31.767Z,26.66
2023-05-26T00:55:31.828Z,27.89
2023-05-26T00:56:31.888Z,29.54
2023-05-26T00:57:31.940Z,29.99
2023-05-26T00:58:32.006Z,29.01
2023-05-26T00:59:32.055Z,28.71
2023-05-26T01:00:32.112Z,28.49
2023-05-26T01:01:32.298Z,26.19
2023-05-26T01:02:32.302Z,29.42
2023-05-26T01:03:32.389Z,27.14
2023-05-26T01:04:32.347Z,29.30
2023-05-26T01:05:32.419Z,27.20
2023-05-26T01:06:32.464Z,26.87
2023-05-26T01:07:32.521Z,29.62
2023-05-26T01:08:32.584Z,27.45
2023-05-26T01:09:32.664Z,27.74
2023-05-26T01:10:32.724Z,26.54
2023-05-26T01:11:32.792Z,27.54
2023-05-26T01:12:32.866Z,28.01
2023-05-26T01:13:32.917Z,26.27
2023-05-26T01:14:32.977Z,27.92
2023-05-26T01:15:33.067Z,27.26
2023-05-26T01:16:33.157Z,31.16
2023-05-26T01:17:33.275Z,27.59
2023-05-26T01:18:33.260Z,29.59
2023-05-26T01:19:33.323Z,31.50
2023-05-26T01:20:33.470Z,27.97
2023-05-26T01:21:33.451Z,30.62
2023-05-26T01:22:33.514Z,30.79
2023-05-26T01:23:33.596Z,29.41
2023-05-26T01:24:33.644Z,30.77
2023-05-26T01:25:33.705Z,29.39
2023-05-26T01:26:33.760Z,27.72
2023-05-26T01:27:33.823Z,27.00
2023-05-26T01:28:33.884Z,30.88
2023-05-26T01:29:33.939Z,29.44
2023-05-26T01:30:34.009Z,28.14
2023-05-26T01:31:34.071Z,27.07
2023-05-26T01:32:34.148Z,27.24
2023-05-26T01:33:34.272Z,26.24
2023-05-26T01:34:34.254Z,26.67
2023-05-26T01:35:34.317Z,30.08
2023-05-26T01:36:34.407Z,29.14
2023-05-26T01:37:34.459Z,30.02
2023-05-26T01:38:34.524Z,30.07
2023-05-26T01:39:34.587Z,31.85
2023-05-26T01:40:34.671Z,30.18
2023-05-26T01:41:34.699Z,25.73
2023-05-26T01:42:34.747Z,30.59
2023-05-26T01:43:34.785Z,27.02
2023-05-26T01:44:34.834Z,28.44
2023-05-26T01:45:34.897Z,32.11
2023-05-26T01:46:35.017Z,31.58
2023-05-26T01:47:35.096Z,28.76
2023-05-26T01:48:35.076Z,28.94
2023-05-26T01:49:35.141Z,29.54
2023-05-26T01:50:35.189Z,28.93
2023-05-26T01:51:35.241Z,27.10
2023-05-26T01:52:35.298Z,30.06
2023-05-26T01:53:35.372Z,29.48
2023-05-26T01:54:35.453Z,30.75
2023-05-26T01:55:35.522Z,31.26
2023-05-26T01:56:35.594Z,28.16
2023-05-26T01:57:35.658Z,29.08
2023-05-26T01:58:35.718Z,31.85
2023-05-26T01:59:35.779Z,28.17
2023-05-26T02:00:35.836Z,30.11
2023-05-26T02:01:35.898Z,33.09
2023-05-26T02:02:36.025Z,28.83
2023-05-26T02:03:36.009Z,30.82
2023-05-26T02:04:35.972Z,29.36
2023-05-26T02:05:36.019Z,29.66
2023-05-26T02:06:36.037Z,29.75
2023-05-26T02:07:36.064Z,27.27
2023-05-26T02:08:36.105Z,30.29
2023-05-26T02:09:36.172Z,29.70
2023-05-26T02:10:36.255Z,29.64
2023-05-26T02:11:36.271Z,30.32
2023-05-26T02:12:36.332Z,30.51
2023-05-26T02:13:36.400Z,30.89
2023-05-26T02:14:36.456Z,28.23
2023-05-26T02:15:36.557Z,28.14
2023-05-26T02:16:36.611Z,30.63
2023-05-26T02:17:36.678Z,30.78
2023-05-26T02:18:36.710Z,30.06
2023-05-26T02:19:36.774Z,29.64
2023-05-26T02:20:36.895Z,32.39
2023-05-26T02:21:36.942Z,30.43
2023-05-26T02:22:36.958Z,30.52
2023-05-26T02:23:37.025Z,28.61
2023-05-26T02:24:37.078Z,30.17
2023-05-26T02:25:37.139Z,28.52
2023-05-26T02:26:37.206Z,29.45
2023-05-26T02:27:37.265Z,29.35
2023-05-26T02:28:37.368Z,31.28
2023-05-26T02:29:37.399Z,29.97
2023-05-26T02:30:37.459Z,30.67
2023-05-26T02:31:42.521Z,29.22
2023-05-26T02:32:37.647Z,29.53
2023-05-26T02:33:37.535Z,30.09
2023-05-26T02:34:37.556Z,30.52
2023-05-26T02:35:37.546Z,30.05
2023-05-26T02:36:37.547Z,31.23
2023-05-26T02:37:37.617Z,29.01
2023-05-26T02:38:37.554Z,29.50
2023-05-26T02:39:37.566Z,31.01
2023-05-26T02:40:37.562Z,29.77
2023-05-26T02:41:37.560Z,29.54
2023-05-26T02:42:37.573Z,31.77
2023-05-26T02:43:37.548Z,31.42
2023-05-26T02:44:37.543Z,32.44
2023-05-26T02:45:37.619Z,31.16
2023-05-26T02:46:37.520Z,30.16
2023-05-26T02:47:37.532Z,31.83
2023-05-26T02:48:37.525Z,32.15
2023-05-26T02:49:37.529Z,30.77
2023-05-26T02:50:37.517Z,30.82
2023-05-26T02:51:37.491Z,28.74
2023-05-26T02:52:37.533Z,30.40
2023-05-26T02:53:37.624Z,30.35
2023-05-26T02:54:37.650Z,33.02
2023-05-26T02:55:37.732Z,31.79
2023-05-26T02:56:37.782Z,30.40
2023-05-26T02:57:37.855Z,31.84
2023-05-26T02:58:37.916Z,30.42
2023-05-26T02:59:37.990Z,33.35
2023-05-26T03:00:38.000Z,32.38
2023-05-26T03:01:38.055Z,33.02
2023-05-26T03:02:38.176Z,31.97
2023-05-26T03:03:38.211Z,31.86
2023-05-26T03:04:38.255Z,30.88
2023-05-26T03:05:38.327Z,30.21
2023-05-26T03:06:38.389Z,30.36
2023-05-26T03:07:38.447Z,32.75
2023-05-26T03:08:38.515Z,29.01
2023-05-26T03:09:38.624Z,30.67
2023-05-26T03:10:38.654Z,27.14
2023-05-26T03:11:38.712Z,29.62
2023-05-26T03:12:38.790Z,31.46
2023-05-26T03:13:38.852Z,28.80
2023-05-26T03:14:38.921Z,31.32
2023-05-26T03:15:38.980Z,32.52
2023-05-26T03:16:39.094Z,32.29
2023-05-26T03:17:39.146Z,33.09
2023-05-26T03:18:39.171Z,32.59
2023-05-26T03:19:39.268Z,31.69
2023-05-26T03:20:39.393Z,33.46
2023-05-26T03:21:48.872Z,33.81
2023-05-26T03:22:47.359Z,34.03
2023-05-26T03:23:39.333Z,34.45
2023-05-26T03:24:39.323Z,35.60
2023-05-26T03:25:39.348Z,35.39
2023-05-26T03:26:39.317Z,37.29
2023-05-26T03:27:39.327Z,34.49
2023-05-26T03:28:39.308Z,34.81
2023-05-26T03:29:39.312Z,34.72
2023-05-26T03:30:39.311Z,28.93
2023-05-26T03:31:39.340Z,32.58
2023-05-26T03:32:39.337Z,32.70
2023-05-26T03:33:39.310Z,34.10
2023-05-26T03:34:39.313Z,31.36
2023-05-26T03:35:39.337Z,32.43
2023-05-26T03:36:39.319Z,31.37
2023-05-26T03:37:39.304Z,33.27
2023-05-26T03:38:39.305Z,32.38
2023-05-26T03:39:39.321Z,29.00
2023-05-26T03:40:39.309Z,33.45
2023-05-26T03:41:39.331Z,31.52
2023-05-26T03:42:39.306Z,33.24
2023-05-26T03:43:39.293Z,30.92
2023-05-26T03:44:39.321Z,30.82
2023-05-26T03:45:39.287Z,30.57
2023-05-26T03:46:39.306Z,30.90
2023-05-26T03:47:39.357Z,30.47
2023-05-26T03:48:39.402Z,32.71
2023-05-26T03:49:39.446Z,32.88
2023-05-26T03:50:39.499Z,28.54
2023-05-26T03:51:39.562Z,31.07
2023-05-26T03:52:39.608Z,32.41
2023-05-26T03:53:39.730Z,31.69
2023-05-26T03:54:39.719Z,32.59
2023-05-26T03:55:39.762Z,33.56
2023-05-26T03:56:39.833Z,32.49
2023-05-26T03:57:39.867Z,31.88
2023-05-26T03:58:39.886Z,30.60
2023-05-26T03:59:39.964Z,30.00
2023-05-26T04:00:40.043Z,32.77
2023-05-26T04:01:40.095Z,32.28
2023-05-26T04:02:40.332Z,31.72
2023-05-26T04:03:42.116Z,28.75
2023-05-26T04:04:40.211Z,29.10
2023-05-26T04:05:40.194Z,29.70
2023-05-26T04:06:40.196Z,29.94
2023-05-26T04:07:40.190Z,31.64
2023-05-26T04:08:40.184Z,34.77
2023-05-26T04:09:40.185Z,33.19
2023-05-26T04:10:40.185Z,33.55
2023-05-26T04:11:40.247Z,33.56
2023-05-26T04:12:40.310Z,33.16
2023-05-26T04:13:40.411Z,34.60
2023-05-26T04:14:40.459Z,32.65
2023-05-26T04:15:40.521Z,32.56
2023-05-26T04:16:40.663Z,32.96
2023-05-26T04:17:40.706Z,31.97
2023-05-26T04:18:40.715Z,32.46
2023-05-26T04:19:40.780Z,32.82
2023-05-26T04:20:40.832Z,33.43
2023-05-26T04:21:40.863Z,33.28
2023-05-26T04:22:40.907Z,31.70
2023-05-26T04:23:40.972Z,30.89
2023-05-26T04:24:41.014Z,32.88
2023-05-26T04:25:41.074Z,31.95
2023-05-26T04:26:41.141Z,32.86
2023-05-26T04:27:41.199Z,34.10
2023-05-26T04:28:41.280Z,32.24
2023-05-26T04:29:41.356Z,29.93
2023-05-26T04:30:41.410Z,27.73
2023-05-26T04:31:41.532Z,33.24
2023-05-26T04:32:41.654Z,30.51
2023-05-26T04:33:41.614Z,31.35
2023-05-26T04:34:42.308Z,32.85
2023-05-26T04:35:41.742Z,32.82
2023-05-26T04:36:41.820Z,32.11
2023-05-26T04:37:41.881Z,31.70
2023-05-26T04:38:41.933Z,33.62
2023-05-26T04:39:41.989Z,32.08
2023-05-26T04:40:42.041Z,31.00
2023-05-26T04:41:42.114Z,32.70
2023-05-26T04:42:42.181Z,32.37
2023-05-26T04:43:42.345Z,31.25
2023-05-26T04:44:42.322Z,34.61
2023-05-26T04:45:42.427Z,32.38
2023-05-26T04:46:42.636Z,32.77
2023-05-26T04:47:42.566Z,32.81
2023-05-26T04:48:42.608Z,32.79
2023-05-26T04:49:42.667Z,31.28
2023-05-26T04:50:42.873Z,33.55
2023-05-26T04:51:42.802Z,31.44
2023-05-26T04:52:42.884Z,31.76
2023-05-26T04:53:42.961Z,32.60
2023-05-26T04:54:43.048Z,33.78
2023-05-26T04:55:43.106Z,32.39
2023-05-26T04:56:43.175Z,32.34
2023-05-26T04:57:43.256Z,31.84
2023-05-26T04:58:43.315Z,32.86
2023-05-26T04:59:43.393Z,32.03
2023-05-26T05:00:43.457Z,31.93
2023-05-26T05:01:43.629Z,33.17
2023-05-26T05:02:43.621Z,30.99
2023-05-26T05:03:43.722Z,31.81
2023-05-26T05:04:43.734Z,30.46
2023-05-26T05:05:43.820Z,34.06
2023-05-26T05:06:44.328Z,32.11
2023-05-26T05:07:43.940Z,32.47
2023-05-26T05:08:44.052Z,31.40
2023-05-26T05:09:44.065Z,29.21
2023-05-26T05:10:44.143Z,25.63
2023-05-26T05:11:44.335Z,25.00
2023-05-26T05:12:44.312Z,25.47
2023-05-26T05:13:44.361Z,26.70
2023-05-26T05:14:44.428Z,29.12
2023-05-26T05:15:44.755Z,27.93
2023-05-26T05:16:45.105Z,27.39
2023-05-26T05:17:44.727Z,28.24
2023-05-26T05:18:44.728Z,24.92
2023-05-26T05:19:44.798Z,28.94
2023-05-26T05:20:45.458Z,30.01
2023-05-26T05:21:45.331Z,29.59
2023-05-26T05:22:45.074Z,26.35
2023-05-26T05:23:45.087Z,27.71
2023-05-26T05:24:45.156Z,28.10
2023-05-26T05:25:45.233Z,30.20
2023-05-26T05:26:45.281Z,26.32
2023-05-26T05:27:45.325Z,26.15
2023-05-26T05:28:45.381Z,25.25
2023-05-26T05:29:45.406Z,26.38
2023-05-26T05:30:46.417Z,26.07
2023-05-26T05:31:45.497Z,25.30
2023-05-26T05:32:45.586Z,25.87
2023-05-26T05:33:45.577Z,26.94
2023-05-26T05:34:45.841Z,26.16
2023-05-26T05:35:45.675Z,25.76
2023-05-26T05:36:45.864Z,27.93
2023-05-26T05:37:45.563Z,27.28
2023-05-26T05:38:45.564Z,27.73
2023-05-26T05:39:45.585Z,29.06
2023-05-26T05:40:45.812Z,29.51
2023-05-26T05:41:45.839Z,31.53
2023-05-26T05:42:45.635Z,32.56
2023-05-26T05:43:45.623Z,33.61
2023-05-26T05:44:45.653Z,38.33
2023-05-26T05:45:45.663Z,45.17
2023-05-26T05:46:45.893Z,49.27
2023-05-26T05:47:45.716Z,46.17
2023-05-26T05:48:45.692Z,49.44
2023-05-26T05:49:45.754Z,51.67
2023-05-26T05:50:45.937Z,54.11
2023-05-26T05:51:45.853Z,53.97
2023-05-26T05:52:46.745Z,57.34
2023-05-26T05:53:45.832Z,58.66
2023-05-26T05:54:45.791Z,60.54
2023-05-26T05:55:45.780Z,58.58
2023-05-26T05:57:49.040Z,62.13
2023-05-26T05:58:45.865Z,62.57
2023-05-26T05:59:49.109Z,64.92
2023-05-26T06:02:17.614Z,62.91
2023-05-26T06:02:49.187Z,63.06
2023-05-26T06:03:46.964Z,63.13
2023-05-26T06:04:53.201Z,67.44
2023-05-26T06:08:53.107Z,63.45
2023-05-26T06:09:48.911Z,63.44
2023-05-26T06:10:45.934Z,63.63
2023-05-26T06:11:50.093Z,68.25
2023-05-26T06:12:45.680Z,63.23
2023-05-26T06:13:45.672Z,67.88
2023-05-26T06:14:45.680Z,73.26
2023-05-26T06:15:45.653Z,87.80
2023-05-26T06:16:45.890Z,123.86
2023-05-26T06:17:46.038Z,144.67
2023-05-26T06:18:45.606Z,141.69
2023-05-26T06:19:45.594Z,131.81
2023-05-26T06:20:46.922Z,122.41
2023-05-26T06:21:45.849Z,110.73
2023-05-26T06:22:45.642Z,108.04
2023-05-26T06:23:45.693Z,107.62
2023-05-26T06:24:48.986Z,102.06
2023-05-26T06:25:45.703Z,102.16
2023-05-26T06:26:45.850Z,100.58
2023-05-26T06:27:45.671Z,99.85
2023-05-26T06:28:45.700Z,97.96
2023-05-26T06:29:45.660Z,97.70
2023-05-26T06:30:45.906Z,101.59
2023-05-26T06:31:45.926Z,97.82
2023-05-26T06:32:45.671Z,99.74
2023-05-26T06:33:45.697Z,102.50
2023-05-26T06:34:45.599Z,100.82
2023-05-26T06:35:45.570Z,98.63
2023-05-26T06:36:45.599Z,100.48
2023-05-26T06:37:45.552Z,101.21
2023-05-26T06:38:45.534Z,97.06
2023-05-26T06:39:45.551Z,95.74
2023-05-26T06:40:46.859Z,93.65
2023-05-26T06:41:45.864Z,88.22
2023-05-26T06:42:45.861Z,93.80
2023-05-26T06:43:45.614Z,89.54
2023-05-26T06:44:48.463Z,90.16
2023-05-26T06:45:45.645Z,90.55
2023-05-26T06:46:53.330Z,90.91
2023-05-26T06:47:46.183Z,90.63
2023-05-26T06:48:45.608Z,92.78
2023-05-26T06:49:45.601Z,94.84
2023-05-26T06:50:45.837Z,93.58
2023-05-26T06:52:53.037Z,90.45
2023-05-26T06:53:48.746Z,90.89
2023-05-26T06:54:45.589Z,91.08
2023-05-26T06:57:46.480Z,91.51
2023-05-26T06:58:46.458Z,91.72
2023-05-26T06:59:45.432Z,96.09
2023-05-26T07:00:45.527Z,103.36
2023-05-26T07:01:45.406Z,115.62
2023-05-26T07:02:45.406Z,130.04
2023-05-26T07:03:45.348Z,125.94
2023-05-26T07:04:45.321Z,127.95
2023-05-26T07:05:54.700Z,127.70
2023-05-26T07:06:47.647Z,127.95
2023-05-26T07:07:45.744Z,128.22
2023-05-26T07:08:45.533Z,129.19
2023-05-26T07:09:45.249Z,128.36
2023-05-26T07:10:52.615Z,128.43
2023-05-26T07:11:48.564Z,128.03
2023-05-26T07:12:45.719Z,127.97
2023-05-26T07:13:46.142Z,128.55
2023-05-26T07:14:45.143Z,128.11
2023-05-26T07:15:45.105Z,126.81
2023-05-26T07:16:45.507Z,123.58
2023-05-26T07:17:45.086Z,126.91
2023-05-26T07:18:45.048Z,121.20
2023-05-26T07:19:45.030Z,122.53
2023-05-26T07:20:46.400Z,124.20
2023-05-26T07:21:45.384Z,120.53
2023-05-26T07:22:45.005Z,123.07
2023-05-26T07:23:45.002Z,120.83
2023-05-26T07:24:45.040Z,123.21
2023-05-26T07:25:45.015Z,131.31
2023-05-26T07:26:45.375Z,141.73
2023-05-26T07:27:45.012Z,140.32
2023-05-26T07:28:45.010Z,131.19
2023-05-26T07:29:45.379Z,129.29
2023-05-26T07:30:45.244Z,130.92
2023-05-26T07:31:48.637Z,131.58
2023-05-26T07:32:45.389Z,131.67
2023-05-26T07:34:44.976Z,131.81
2023-05-26T07:35:48.390Z,132.35
2023-05-26T07:36:44.922Z,131.98
2023-05-26T07:37:44.876Z,132.73
2023-05-26T07:38:44.837Z,133.04
2023-05-26T07:39:44.884Z,135.66
2023-05-26T07:40:45.819Z,137.55
2023-05-26T07:41:44.790Z,136.55
2023-05-26T07:44:44.703Z,133.47
2023-05-26T07:45:45.032Z,135.43
2023-05-26T07:46:44.770Z,137.90
2023-05-26T07:47:44.672Z,142.36
2023-05-26T07:48:44.622Z,145.83
2023-05-26T07:49:44.915Z,149.57
2023-05-26T07:50:45.836Z,147.49
2023-05-26T07:51:44.880Z,146.31
2023-05-26T07:52:44.495Z,148.28
2023-05-26T07:53:47.738Z,149.85
2023-05-26T07:54:45.407Z,148.67
2023-05-26T07:55:48.306Z,149.91
2023-05-26T07:57:00.920Z,150.12
2023-05-26T07:57:44.846Z,150.04
2023-05-26T07:58:51.780Z,146.20
2023-05-26T07:59:44.321Z,148.71
2023-05-26T08:00:44.393Z,137.83
2023-05-26T08:01:44.387Z,128.09
2023-05-26T08:02:45.503Z,122.31
2023-05-26T08:03:44.258Z,119.96
2023-05-26T08:04:44.168Z,116.69
2023-05-26T08:05:44.469Z,112.94
2023-05-26T08:06:44.385Z,109.28
2023-05-26T08:07:44.237Z,102.41
2023-05-26T08:08:44.283Z,108.51
2023-05-26T08:09:44.310Z,108.52
2023-05-26T08:10:44.333Z,107.52
2023-05-26T08:11:44.387Z,100.19
2023-05-26T08:12:44.432Z,97.99
2023-05-26T08:13:44.426Z,93.37
2023-05-26T08:14:44.448Z,95.17
2023-05-26T08:15:44.779Z,96.37
2023-05-26T08:16:44.580Z,93.13
2023-05-26T08:17:44.522Z,96.28
2023-05-26T08:18:44.544Z,103.94
2023-05-26T08:19:44.542Z,105.13
2023-05-26T08:20:48.420Z,106.27
2023-05-26T08:21:51.985Z,106.68
2023-05-26T08:22:44.517Z,106.87
2023-05-26T08:23:44.444Z,108.82
2023-05-26T08:24:44.415Z,110.27
2023-05-26T08:25:44.674Z,117.02
2023-05-26T08:26:46.066Z,121.40
2023-05-26T08:27:44.329Z,106.86
2023-05-26T08:28:44.288Z,109.15
2023-05-26T08:29:44.224Z,110.72
2023-05-26T08:30:44.401Z,111.52
2023-05-26T08:31:44.203Z,114.91
2023-05-26T08:32:44.414Z,115.84
2023-05-26T08:33:44.134Z,114.74
2023-05-26T08:34:44.036Z,120.97
2023-05-26T08:35:44.243Z,117.05
2023-05-26T08:36:43.950Z,115.41
2023-05-26T08:37:47.606Z,113.42
2023-05-26T08:38:43.899Z,113.48
2023-05-26T08:39:43.849Z,112.96
2023-05-26T08:40:43.814Z,113.28
2023-05-26T08:41:43.902Z,114.65
2023-05-26T08:42:43.908Z,111.39
2023-05-26T08:43:53.358Z,108.19
2023-05-26T08:44:43.698Z,108.52
2023-05-26T08:45:43.675Z,109.95
2023-05-26T08:46:44.913Z,111.04
2023-05-26T08:47:43.633Z,116.35
2023-05-26T08:48:43.534Z,112.71
2023-05-26T08:49:43.508Z,110.17
2023-05-26T08:50:43.475Z,110.88
2023-05-26T08:51:43.445Z,111.66
2023-05-26T08:52:54.210Z,107.74
2023-05-26T08:53:43.369Z,108.03
2023-05-26T08:54:43.329Z,108.70
2023-05-26T08:55:43.294Z,109.77
2023-05-26T08:56:43.401Z,111.01
2023-05-26T08:57:43.232Z,112.16
2023-05-26T08:58:43.193Z,111.02
2023-05-26T08:59:43.158Z,104.98
2023-05-26T09:00:43.218Z,108.21
2023-05-26T09:01:43.456Z,106.83
2023-05-26T09:02:43.096Z,101.65
2023-05-26T09:03:43.032Z,100.54
2023-05-26T09:04:42.951Z,102.56
2023-05-26T09:05:42.919Z,104.93
2023-05-26T09:06:44.948Z,96.19
2023-05-26T09:07:42.827Z,96.51
2023-05-26T09:08:42.785Z,96.51
2023-05-26T09:09:45.968Z,82.02
2023-05-26T09:10:42.709Z,80.47
2023-05-26T09:11:47.422Z,72.81
2023-05-26T09:12:42.630Z,78.98
2023-05-26T09:13:42.585Z,65.83
2023-05-26T09:14:42.595Z,58.28
2023-05-26T09:15:42.501Z,49.21
2023-05-26T09:16:44.513Z,41.24
2023-05-26T09:17:42.446Z,64.58
2023-05-26T09:18:42.373Z,64.85
2023-05-26T09:19:42.373Z,56.40
2023-05-26T09:20:42.455Z,44.53
2023-05-26T09:21:42.409Z,32.41
2023-05-26T09:22:42.215Z,36.66
2023-05-26T09:23:42.174Z,42.75
2023-05-26T09:24:42.133Z,42.71
2023-05-26T09:25:42.072Z,40.63
2023-05-26T09:26:42.407Z,27.77
2023-05-26T09:27:41.992Z,21.69
2023-05-26T09:28:41.956Z,25.00
2023-05-26T09:29:45.110Z,25.12
2023-05-26T09:30:41.990Z,19.82
2023-05-26T09:31:41.939Z,13.51
2023-05-26T09:32:41.903Z,12.19
2023-05-26T09:33:45.014Z,4.32
2023-05-26T09:34:44.907Z,10.66
2023-05-26T09:35:41.689Z,4.75
2023-05-26T09:36:49.400Z,0.00
2023-05-26T09:37:57.310Z,10.70
2023-05-26T09:38:44.907Z,9.55
2023-05-26T09:39:41.486Z,14.42
2023-05-26T09:40:41.452Z,0.00
2023-05-26T09:41:41.416Z,0.00
2023-05-26T09:42:41.386Z,0.00
2023-05-26T09:43:41.393Z,0.00
2023-05-26T09:44:41.917Z,0.00
2023-05-26T09:45:48.719Z,11.56
2023-05-26T09:46:42.455Z,11.75
2023-05-26T09:47:42.200Z,12.14
2023-05-26T09:48:44.408Z,12.26
2023-05-26T09:49:41.089Z,8.21
2023-05-26T09:50:41.051Z,0.00
2023-05-26T09:51:41.058Z,0.00
2023-05-26T09:52:41.440Z,0.00
2023-05-26T09:53:40.965Z,5.18
2023-05-26T09:54:40.944Z,28.58
2023-05-26T09:55:40.881Z,33.76
2023-05-26T09:56:40.926Z,42.76
2023-05-26T09:57:40.810Z,36.20
2023-05-26T09:58:40.769Z,23.34
2023-05-26T09:59:40.733Z,22.79
2023-05-26T10:00:40.754Z,25.54
2023-05-26T10:01:40.763Z,31.69
2023-05-26T10:02:40.733Z,28.37
2023-05-26T10:03:40.583Z,39.63
2023-05-26T10:04:40.654Z,50.21
2023-05-26T10:05:40.567Z,55.68
2023-05-26T10:06:40.478Z,59.29
2023-05-26T10:07:40.459Z,64.80
2023-05-26T10:08:40.392Z,58.39
2023-05-26T10:09:40.367Z,55.18
2023-05-26T10:10:43.512Z,53.75
2023-05-26T10:11:40.290Z,54.25
2023-05-26T10:12:40.237Z,56.18
2023-05-26T10:13:40.207Z,57.23
2023-05-26T10:14:40.164Z,54.98
2023-05-26T10:15:40.457Z,56.86
2023-05-26T10:16:40.185Z,64.67
2023-05-26T10:17:40.156Z,72.70
2023-05-26T10:18:39.995Z,78.67
2023-05-26T10:19:39.967Z,84.18
2023-05-26T10:20:40.551Z,77.15
2023-05-26T10:21:39.936Z,76.37
2023-05-26T10:22:39.836Z,68.69
2023-05-26T10:23:39.808Z,68.24
2023-05-26T10:24:39.762Z,57.28
2023-05-26T10:25:39.729Z,52.91
2023-05-26T10:26:39.960Z,41.63
2023-05-26T10:27:42.841Z,35.13
2023-05-26T10:28:39.610Z,31.43
2023-05-26T10:29:39.558Z,18.36
2023-05-26T10:30:42.703Z,16.43
2023-05-26T10:31:39.980Z,35.59
2023-05-26T10:32:39.492Z,39.54
2023-05-26T10:33:39.373Z,42.47
2023-05-26T10:34:40.516Z,45.60
2023-05-26T10:35:39.460Z,36.01
2023-05-26T10:36:39.275Z,38.66
2023-05-26T10:37:39.189Z,40.01
2023-05-26T10:38:39.492Z,37.47
2023-05-26T10:39:39.109Z,27.95
2023-05-26T10:40:39.090Z,40.14
2023-05-26T10:41:39.029Z,53.32
2023-05-26T10:42:38.991Z,54.99
2023-05-26T10:43:38.951Z,60.63
2023-05-26T10:44:38.913Z,62.72
2023-05-26T10:45:38.962Z,58.14
2023-05-26T10:46:38.973Z,64.87
2023-05-26T10:47:38.800Z,73.00
2023-05-26T10:48:38.743Z,78.63
2023-05-26T10:49:38.682Z,72.16
2023-05-26T10:50:38.651Z,62.66
2023-05-26T10:51:38.655Z,53.86
2023-05-26T10:52:38.973Z,50.83
2023-05-26T10:53:38.536Z,54.15
2023-05-26T10:54:38.474Z,55.45
2023-05-26T10:55:38.429Z,42.51
2023-05-26T10:56:38.413Z,46.26
2023-05-26T10:57:38.445Z,40.10
2023-05-26T10:58:38.388Z,26.41
2023-05-26T10:59:38.371Z,25.79
2023-05-26T11:00:38.432Z,25.00
2023-05-26T11:01:38.413Z,25.69
2023-05-26T11:02:38.468Z,25.00
2023-05-26T11:03:38.508Z,32.00
2023-05-26T11:04:38.436Z,26.72
2023-05-26T11:05:38.442Z,26.71
2023-05-26T11:06:38.462Z,31.34
2023-05-26T11:07:38.518Z,27.36
2023-05-26T11:08:38.472Z,25.14
2023-05-26T11:09:38.445Z,25.09
2023-05-26T11:10:38.457Z,32.34
2023-05-26T11:11:38.466Z,31.36
2023-05-26T11:12:39.948Z,24.49
2023-05-26T11:13:38.470Z,30.52
2023-05-26T11:14:38.473Z,24.49
2023-05-26T11:15:38.472Z,30.38
2023-05-26T11:16:39.511Z,25.00
2023-05-26T11:17:38.976Z,23.60
2023-05-26T11:18:38.523Z,26.36
2023-05-26T11:19:38.548Z,28.55
2023-05-26T11:20:38.607Z,25.00
2023-05-26T11:21:39.724Z,28.27
2023-05-26T11:22:38.954Z,32.13
2023-05-26T11:23:38.606Z,27.49
2023-05-26T11:24:39.629Z,31.51
2023-05-26T11:25:38.619Z,25.00
2023-05-26T11:26:38.963Z,33.57
2023-05-26T11:27:38.632Z,24.24
2023-05-26T11:28:38.666Z,22.74
2023-05-26T11:29:38.671Z,32.22
2023-05-26T11:30:38.710Z,28.26
2023-05-26T11:31:38.724Z,30.23
2023-05-26T11:32:38.689Z,25.00
2023-05-26T11:33:38.686Z,27.30
2023-05-26T11:34:38.705Z,32.74
2023-05-26T11:35:38.714Z,26.89
2023-05-26T11:36:38.732Z,28.36
2023-05-26T11:37:38.746Z,25.00
2023-05-26T11:38:38.784Z,24.92
2023-05-26T11:39:38.791Z,25.00
2023-05-26T11:40:38.987Z,29.29
2023-05-26T11:41:38.836Z,29.36
2023-05-26T11:42:38.879Z,35.47
2023-05-26T11:43:38.856Z,38.28
2023-05-26T11:44:38.863Z,86.63
2023-05-26T11:45:38.875Z,100.61
2023-05-26T11:46:38.918Z,95.17
2023-05-26T11:47:38.908Z,119.15
2023-05-26T11:48:38.926Z,143.61
2023-05-26T11:49:38.940Z,135.75
2023-05-26T11:50:38.960Z,143.40
2023-05-26T11:51:38.975Z,133.49
2023-05-26T11:52:38.997Z,155.59
2023-05-26T11:53:39.025Z,172.15
2023-05-26T11:54:39.043Z,177.01
2023-05-26T11:55:39.068Z,184.33
2023-05-26T11:56:39.117Z,202.44
2023-05-26T11:57:39.095Z,207.91
2023-05-26T11:58:39.112Z,230.62
2023-05-26T11:59:39.118Z,239.92
2023-05-26T12:00:39.122Z,247.31
2023-05-26T12:01:39.163Z,249.70
2023-05-26T12:02:39.235Z,242.96
2023-05-26T12:03:39.204Z,243.21
2023-05-26T12:04:39.218Z,250.00
2023-05-26T12:05:39.197Z,250.00
2023-05-26T12:06:39.596Z,250.00
2023-05-26T12:07:39.472Z,250.00
2023-05-26T12:08:39.247Z,248.28
2023-05-26T12:09:39.235Z,248.48
2023-05-26T12:10:39.256Z,253.18
2023-05-26T12:11:39.287Z,247.75
2023-05-26T12:12:39.306Z,244.85
2023-05-26T12:13:39.303Z,243.23
2023-05-26T12:14:39.322Z,241.78
2023-05-26T12:15:39.334Z,238.37
2023-05-26T12:16:39.518Z,236.38
2023-05-26T12:17:39.387Z,232.06
2023-05-26T12:18:39.382Z,224.41
2023-05-26T12:19:39.484Z,229.89
2023-05-26T12:20:45.036Z,229.40
2023-05-26T12:21:39.410Z,229.46
2023-05-26T12:22:39.317Z,229.69
2023-05-26T12:23:39.262Z,227.20
2023-05-26T12:24:39.211Z,224.11
2023-05-26T12:25:39.201Z,220.31
2023-05-26T12:26:39.130Z,212.97
2023-05-26T12:27:39.111Z,209.69
2023-05-26T12:28:39.063Z,207.64
2023-05-26T12:29:39.020Z,210.44
2023-05-26T12:30:48.652Z,202.99
2023-05-26T12:31:38.984Z,203.22
2023-05-26T12:32:38.920Z,201.79
2023-05-26T12:33:38.819Z,190.72
2023-05-26T12:34:38.769Z,189.91
2023-05-26T12:35:38.720Z,187.25
2023-05-26T12:36:38.674Z,184.12
2023-05-26T12:37:38.625Z,183.95
2023-05-26T12:38:38.583Z,177.68
2023-05-26T12:39:38.532Z,173.29
2023-05-26T12:40:38.483Z,170.84
2023-05-26T12:41:38.467Z,174.55
2023-05-26T12:42:38.404Z,168.39
2023-05-26T12:43:38.318Z,158.39
2023-05-26T12:44:38.302Z,154.81
2023-05-26T12:45:38.231Z,157.27
2023-05-26T12:46:38.162Z,159.34
2023-05-26T12:47:38.189Z,158.43
2023-05-26T12:48:38.184Z,155.06
2023-05-26T12:49:38.024Z,154.64
2023-05-26T12:50:37.982Z,153.75
2023-05-26T12:51:37.953Z,157.15
2023-05-26T12:52:37.869Z,156.44
2023-05-26T12:53:37.830Z,159.78
2023-05-26T12:54:37.770Z,155.34
2023-05-26T12:55:37.988Z,150.66
2023-05-26T12:56:37.696Z,145.70
2023-05-26T12:57:37.988Z,138.57